createdAt,value
2022-09-29T00:01:02.465Z,8.43
2022-09-29T00:04:59.462Z,9.67
2022-09-29T00:08:58.683Z,9.93
2022-09-29T00:12:55.692Z,8.73
2022-09-29T00:16:53.326Z,8.10
2022-09-29T00:21:07.629Z,5.97
2022-09-29T00:25:05.301Z,5.23
2022-09-29T00:29:02.338Z,8.90
2022-09-29T00:32:59.292Z,8.57
2022-09-29T00:36:56.265Z,5.73
2022-09-29T00:40:53.771Z,8.07
2022-09-29T00:45:08.294Z,6.30
2022-09-29T00:49:19.911Z,6.23
2022-09-29T00:53:21.718Z,5.77
2022-09-29T00:57:25.033Z,7.47
2022-09-29T01:01:25.356Z,7.47
2022-09-29T01:05:34.462Z,6.30
2022-09-29T01:09:40.363Z,5.23
2022-09-29T01:13:41.833Z,7.10
2022-09-29T01:17:38.972Z,7.00
2022-09-29T01:22:04.196Z,4.17
2022-09-29T01:26:51.035Z,5.30
2022-09-29T01:31:05.798Z,6.57
2022-09-29T01:35:33.980Z,6.53
2022-09-29T01:39:41.460Z,6.40
2022-09-29T01:44:27.670Z,4.83
2022-09-29T01:48:34.727Z,4.73
2022-09-29T01:52:42.325Z,5.83
2022-09-29T01:57:09.789Z,4.00
2022-09-29T02:01:13.114Z,9.47
2022-09-29T02:05:27.700Z,5.73
2022-09-29T02:09:37.718Z,5.40
2022-09-29T02:14:05.400Z,5.33
2022-09-29T02:18:13.656Z,5.73
2022-09-29T02:22:10.848Z,4.70
2022-09-29T02:26:12.559Z,6.93
2022-09-29T02:30:12.612Z,5.87
2022-09-29T02:34:16.141Z,4.67
2022-09-29T02:38:43.128Z,5.80
2022-09-29T02:43:14.691Z,10.83
2022-09-29T02:47:47.437Z,7.97
2022-09-29T02:51:56.897Z,5.70
2022-09-29T02:56:12.102Z,5.40
2022-09-29T03:00:14.258Z,6.07
2022-09-29T03:04:11.230Z,7.53
2022-09-29T03:08:08.185Z,10.37
2022-09-29T03:12:05.214Z,6.90
2022-09-29T03:16:02.380Z,7.87
2022-09-29T03:19:59.402Z,9.17
2022-09-29T03:23:57.790Z,6.00
2022-09-29T03:27:55.450Z,10.27
2022-09-29T03:31:52.457Z,10.40
2022-09-29T03:35:49.565Z,7.83
2022-09-29T03:39:46.525Z,9.67
2022-09-29T03:43:43.553Z,9.27
2022-09-29T03:47:40.564Z,7.53
2022-09-29T03:51:38.637Z,12.17
2022-09-29T03:55:35.632Z,7.13
2022-09-29T03:59:32.755Z,11.67
2022-09-29T04:03:29.823Z,9.67
2022-09-29T04:07:26.793Z,10.70
2022-09-29T04:11:25.951Z,9.27
2022-09-29T04:15:22.890Z,11.43
2022-09-29T04:19:20.144Z,14.63
2022-09-29T04:23:17.345Z,8.47
2022-09-29T04:27:16.384Z,9.33
2022-09-29T04:31:13.599Z,12.77
2022-09-29T04:35:11.065Z,8.63
2022-09-29T04:39:08.046Z,7.83
2022-09-29T04:43:05.894Z,11.33
2022-09-29T04:47:02.908Z,14.77
2022-09-29T04:50:59.901Z,11.77
2022-09-29T04:54:57.060Z,18.63
2022-09-29T04:58:55.609Z,8.60
2022-09-29T05:02:52.644Z,10.37
2022-09-29T05:06:49.741Z,14.27
2022-09-29T05:10:47.970Z,27.53
2022-09-29T05:14:44.974Z,24.60
2022-09-29T05:18:41.935Z,269.23
2022-09-29T05:22:39.311Z,96.07
2022-09-29T05:26:36.329Z,266.73
2022-09-29T05:30:34.877Z,74.80
2022-09-29T05:34:32.015Z,69.13
2022-09-29T05:38:29.011Z,79.07
2022-09-29T05:42:26.092Z,80.43
2022-09-29T05:46:23.604Z,74.03
2022-09-29T05:50:21.218Z,94.47
2022-09-29T05:54:18.209Z,158.87
2022-09-29T05:58:15.172Z,69.43
2022-09-29T06:02:12.235Z,148.00
2022-09-29T06:06:16.610Z,93.87
2022-09-29T06:10:13.796Z,164.37
2022-09-29T06:14:10.800Z,83.27
2022-09-29T06:18:07.842Z,243.80
2022-09-29T06:22:04.787Z,65.90
2022-09-29T06:26:05.852Z,46.63
2022-09-29T06:30:03.618Z,38.30
2022-09-29T06:34:03.965Z,59.50
2022-09-29T06:38:01.353Z,131.40
2022-09-29T06:41:58.460Z,59.53
2022-09-29T06:45:55.499Z,77.30
2022-09-29T06:50:17.086Z,109.83
2022-09-29T06:54:12.349Z,60.47
2022-09-29T06:58:09.714Z,70.73
2022-09-29T07:02:07.132Z,48.27
2022-09-29T07:06:26.469Z,46.90
2022-09-29T07:10:23.534Z,36.93
2022-09-29T07:14:23.510Z,10.70
2022-09-29T07:18:21.331Z,18.50
2022-09-29T07:22:18.336Z,38.20
2022-09-29T07:26:17.360Z,40.87
2022-09-29T07:30:15.210Z,8.47
2022-09-29T07:34:12.211Z,26.17
2022-09-29T07:38:09.145Z,16.27
2022-09-29T07:42:09.159Z,55.47
2022-09-29T07:46:10.057Z,31.50
2022-09-29T07:50:07.589Z,46.57
2022-09-29T07:54:05.929Z,21.93
2022-09-29T07:58:03.041Z,8.60
2022-09-29T08:02:00.066Z,12.73
2022-09-29T08:05:58.135Z,36.27
2022-09-29T08:09:56.167Z,27.93
2022-09-29T08:13:54.439Z,22.47
2022-09-29T08:17:55.988Z,21.33
2022-09-29T08:21:53.436Z,18.07
2022-09-29T08:26:32.415Z,13.37
2022-09-29T08:30:33.996Z,9.63
2022-09-29T08:34:30.980Z,11.17
2022-09-29T08:38:28.064Z,10.37
2022-09-29T08:42:59.109Z,7.33
2022-09-29T08:47:10.350Z,10.17
2022-09-29T08:51:41.634Z,9.97
2022-09-29T08:56:03.625Z,8.77
2022-09-29T09:00:01.277Z,13.07
2022-09-29T09:04:45.263Z,14.20
2022-09-29T09:09:06.781Z,11.97
2022-09-29T09:13:49.487Z,11.17
2022-09-29T09:18:10.740Z,13.67
2022-09-29T09:22:16.629Z,14.97
2022-09-29T09:26:14.865Z,11.50
2022-09-29T09:30:19.739Z,11.50
2022-09-29T09:34:32.471Z,10.87
2022-09-29T09:39:01.741Z,10.70
2022-09-29T09:43:36.688Z,9.97
2022-09-29T09:47:59.951Z,8.93
2022-09-29T09:52:07.997Z,9.10
2022-09-29T09:56:23.662Z,11.17
2022-09-29T10:01:08.626Z,9.67
2022-09-29T10:05:12.668Z,10.83
2022-09-29T10:09:16.063Z,17.33
2022-09-29T10:13:15.964Z,13.53
2022-09-29T10:17:17.759Z,12.50
2022-09-29T10:21:40.908Z,14.20
2022-09-29T10:25:37.985Z,14.70
2022-09-29T10:29:42.512Z,18.23
2022-09-29T10:33:52.824Z,13.03
2022-09-29T10:38:05.630Z,18.83
2022-09-29T10:42:04.910Z,17.33
2022-09-29T10:46:02.074Z,15.77
2022-09-29T10:50:14.369Z,18.47
2022-09-29T10:54:16.831Z,25.20
2022-09-29T10:59:00.021Z,18.80
2022-09-29T11:03:27.404Z,14.20
2022-09-29T11:07:25.065Z,19.70
2022-09-29T11:11:26.920Z,18.20
2022-09-29T11:15:41.216Z,14.85
2022-09-29T11:19:38.486Z,14.93
2022-09-29T11:23:59.059Z,15.18
2022-09-29T11:28:19.300Z,16.63
2022-09-29T11:32:28.067Z,16.70
2022-09-29T11:36:57.587Z,13.93
2022-09-29T11:41:17.379Z,17.52
2022-09-29T11:49:56.561Z,15.05
2022-09-29T11:54:37.938Z,16.25
2022-09-29T11:59:22.675Z,15.63
2022-09-29T12:03:37.489Z,13.85
2022-09-29T12:07:46.590Z,13.75
2022-09-29T12:12:23.045Z,13.10
2022-09-29T12:16:29.514Z,11.32
2022-09-29T12:20:34.586Z,13.90
2022-09-29T12:24:48.264Z,12.88
2022-09-29T12:29:27.136Z,13.35
2022-09-29T12:33:40.182Z,10.73
2022-09-29T12:37:47.884Z,12.82
2022-09-29T12:41:58.906Z,13.88
2022-09-29T12:46:27.029Z,13.98
2022-09-29T12:50:30.872Z,10.93
2022-09-29T12:54:34.770Z,11.60
2022-09-29T12:58:53.214Z,8.90
2022-09-29T13:03:40.119Z,9.40
2022-09-29T13:07:50.980Z,9.40
2022-09-29T13:12:18.148Z,11.35
2022-09-29T13:16:33.111Z,7.82
2022-09-29T13:20:42.862Z,9.63
2022-09-29T13:25:28.719Z,9.13
2022-09-29T13:29:31.093Z,8.02
2022-09-29T13:33:29.085Z,5.63
2022-09-29T13:37:33.915Z,6.60
2022-09-29T13:42:32.315Z,6.00
2022-09-29T13:46:32.234Z,5.18
2022-09-29T13:50:46.250Z,4.50
2022-09-29T13:54:44.340Z,7.45
2022-09-29T13:59:02.410Z,3.83
2022-09-29T14:03:06.218Z,8.40
2022-09-29T14:07:06.702Z,4.60
2022-09-29T14:11:15.794Z,4.03
2022-09-29T14:15:19.012Z,4.85
2022-09-29T14:19:39.597Z,6.20
2022-09-29T14:23:49.405Z,4.78
2022-09-29T14:28:04.098Z,4.63
2022-09-29T14:32:03.596Z,8.23
2022-09-29T14:36:00.459Z,7.72
2022-09-29T14:40:16.231Z,4.78
2022-09-29T14:44:21.890Z,8.02
2022-09-29T14:49:02.254Z,6.13
2022-09-29T14:53:06.891Z,7.60
2022-09-29T14:57:35.466Z,5.55
2022-09-29T15:01:37.030Z,7.43
2022-09-29T15:05:36.080Z,6.70
2022-09-29T15:09:37.591Z,4.10
2022-09-29T15:13:34.782Z,7.43
2022-09-29T15:18:06.660Z,8.80
2022-09-29T15:22:41.810Z,5.55
2022-09-29T15:26:40.793Z,4.90
2022-09-29T15:30:38.423Z,4.82
2022-09-29T15:34:39.564Z,6.35
2022-09-29T15:38:40.595Z,8.50
2022-09-29T15:42:38.555Z,6.10
2022-09-29T15:46:48.927Z,11.13
2022-09-29T15:50:45.899Z,11.63
2022-09-29T15:54:47.880Z,8.60
2022-09-29T15:58:45.710Z,10.63
2022-09-29T16:02:43.569Z,8.63
2022-09-29T16:06:46.250Z,9.47
2022-09-29T16:11:02.534Z,11.03
2022-09-29T16:14:59.868Z,13.30
2022-09-29T16:19:06.530Z,10.27
2022-09-29T16:23:56.218Z,9.07
2022-09-29T16:28:07.494Z,5.23
2022-09-29T16:32:41.339Z,9.23
2022-09-29T16:36:52.093Z,22.83
2022-09-29T16:40:50.705Z,17.77
2022-09-29T16:44:53.256Z,12.17
2022-09-29T16:48:51.586Z,13.47
2022-09-29T16:52:51.051Z,14.23
2022-09-29T16:57:09.040Z,25.17
2022-09-29T17:01:06.726Z,14.67
2022-09-29T17:05:05.265Z,12.37
2022-09-29T17:09:05.623Z,8.23
2022-09-29T17:13:14.157Z,8.43
2022-09-29T17:17:20.263Z,8.00
2022-09-29T17:21:17.526Z,8.37
2022-09-29T17:25:15.201Z,8.80
2022-09-29T17:29:12.178Z,9.50
2022-09-29T17:33:13.020Z,13.63
2022-09-29T17:37:10.992Z,9.87
2022-09-29T17:41:16.397Z,15.63
2022-09-29T17:45:16.043Z,13.60
2022-09-29T17:49:18.142Z,15.63
2022-09-29T17:53:16.714Z,11.83
2022-09-29T17:57:29.103Z,14.27
2022-09-29T18:01:26.453Z,15.20
2022-09-29T18:05:28.395Z,10.87
2022-09-29T18:09:25.467Z,10.53
2022-09-29T18:13:24.935Z,14.33
2022-09-29T18:17:21.975Z,9.33
2022-09-29T18:21:20.378Z,8.63
2022-09-29T18:25:19.470Z,10.13
2022-09-29T18:29:19.067Z,11.20
2022-09-29T18:33:19.585Z,16.63
2022-09-29T18:37:16.882Z,18.73
2022-09-29T18:41:20.208Z,14.80
2022-09-29T18:45:23.336Z,14.93
2022-09-29T18:49:20.501Z,13.77
2022-09-29T18:53:21.895Z,11.57
2022-09-29T18:57:21.848Z,12.83
2022-09-29T19:01:25.356Z,9.30
2022-09-29T19:05:29.066Z,9.27
2022-09-29T19:09:26.171Z,8.80
2022-09-29T19:13:23.356Z,11.30
2022-09-29T19:17:24.207Z,13.97
2022-09-29T19:21:21.150Z,17.33
2022-09-29T19:25:23.929Z,14.33
2022-09-29T19:29:21.046Z,10.53
2022-09-29T19:33:21.876Z,9.20
2022-09-29T19:37:19.019Z,8.47
2022-09-29T19:41:23.822Z,6.27
2022-09-29T19:45:21.777Z,6.43
2022-09-29T19:49:18.810Z,6.43
2022-09-29T19:53:15.889Z,11.17
2022-09-29T19:57:16.134Z,21.47
2022-09-29T20:01:13.299Z,9.07
2022-09-29T20:05:11.677Z,7.83
2022-09-29T20:09:09.988Z,6.53
2022-09-29T20:13:07.210Z,8.80
2022-09-29T20:17:04.302Z,11.37
2022-09-29T20:21:10.584Z,13.63
2022-09-29T20:25:08.913Z,9.70
2022-09-29T20:29:08.546Z,9.83
2022-09-29T20:33:05.723Z,12.90
2022-09-29T20:37:03.204Z,8.10
2022-09-29T20:41:02.502Z,6.63
2022-09-29T20:45:00.173Z,7.13
2022-09-29T20:48:59.987Z,7.33
2022-09-29T20:52:57.193Z,12.30
2022-09-29T20:56:54.602Z,13.67
2022-09-29T21:00:52.193Z,8.00
2022-09-29T21:04:49.419Z,6.53
2022-09-29T21:08:46.647Z,8.53
2022-09-29T21:12:46.035Z,9.40
2022-09-29T21:16:43.036Z,6.77
2022-09-29T21:20:39.998Z,11.00
2022-09-29T21:24:39.139Z,5.90
2022-09-29T21:28:38.579Z,8.97
2022-09-29T21:32:35.565Z,8.50
2022-09-29T21:36:36.563Z,8.77
2022-09-29T21:40:34.542Z,9.77
2022-09-29T21:44:35.140Z,12.07
2022-09-29T21:48:35.346Z,9.83
2022-09-29T21:52:33.340Z,6.83
2022-09-29T21:56:40.448Z,10.50
2022-09-29T22:00:39.419Z,8.07
2022-09-29T22:04:36.403Z,9.23
2022-09-29T22:08:34.586Z,9.63
2022-09-29T22:12:32.260Z,13.33
2022-09-29T22:16:33.689Z,9.63
2022-09-29T22:20:30.728Z,8.50
2022-09-29T22:24:28.429Z,7.97
2022-09-29T22:28:25.914Z,7.37
2022-09-29T22:32:23.614Z,7.53
2022-09-29T22:36:21.698Z,19.83
2022-09-29T22:40:18.674Z,12.13
2022-09-29T22:44:16.015Z,6.77
2022-09-29T22:48:13.606Z,5.73
2022-09-29T22:52:10.700Z,6.87
2022-09-29T22:56:15.753Z,6.93
2022-09-29T23:00:13.047Z,9.83
2022-09-29T23:04:10.131Z,9.37
2022-09-29T23:08:07.234Z,9.87
2022-09-29T23:12:04.299Z,6.70
2022-09-29T23:16:11.653Z,8.50
2022-09-29T23:20:09.829Z,7.87
2022-09-29T23:24:07.210Z,8.00
2022-09-29T23:28:06.200Z,9.00
2022-09-29T23:32:03.353Z,6.97
2022-09-29T23:36:13.985Z,7.90
2022-09-29T23:40:11.153Z,8.23
2022-09-29T23:44:09.565Z,7.10
2022-09-29T23:48:06.582Z,6.17
2022-09-29T23:52:04.662Z,6.60
2022-09-29T23:56:02.435Z,5.20
2022-09-29T23:59:59.459Z,17.97
